Time;durP1;ratioP1;P1;durP2;ratioP2;P2;SDS_P1;SDS_P2;PMS_P1;PMS_P2;Temp;Humidity;BMP_temperature;BMP_pressure;BME280_temperature;BME280_humidity;BME280_pressure;Samples;Min_cycle;Max_cycle;Signal;HPM_P1;HPM_P2
2022/02/02 00:02:25;;;;;;;20.88;5.63;;;;;;;;;;4990649;28;20259;-77
2022/02/02 00:05:00;;;;;;;20.50;4.80;;;;;;;;;;4974510;28;20193;-76
2022/02/02 00:07:34;;;;;;;21.92;4.30;;;;;;;;;;4973013;28;20207;-77
2022/02/02 00:10:12;;;;;;;20.40;4.93;;;;;;;;;;4972906;28;20272;-76
2022/02/02 00:12:44;;;;;;;24.02;4.50;;;;;;;;;;4988315;28;20549;-77
2022/02/02 00:18:06;;;;;;;21.20;5.50;;;;;;;;;;4988951;28;20204;-75
2022/02/02 00:20:39;;;;;;;32.08;6.13;;;;;;;;;;5011615;28;20636;-76
2022/02/02 00:23:14;;;;;;;22.73;5.85;;;;;;;;;;5011547;28;20203;-77
2022/02/02 00:25:50;;;;;;;20.05;4.50;;;;;;;;;;5004173;28;20213;-77
2022/02/02 00:28:19;;;;;;;15.80;5.00;;;;;;;;;;5010567;28;20204;-77
2022/02/02 00:30:47;;;;;;;27.25;6.20;;;;;;;;;;4991595;28;20216;-76
2022/02/02 00:33:21;;;;;;;26.92;5.25;;;;;;;;;;5000694;28;20185;-76
2022/02/02 00:35:58;;;;;;;30.25;6.60;;;;;;;;;;4976896;28;20304;-76
2022/02/02 00:38:25;;;;;;;19.55;5.85;;;;;;;;;;4973085;28;20193;-76
2022/02/02 00:40:53;;;;;;;28.98;6.25;;;;;;;;;;4970466;28;20229;-76
2022/02/02 00:43:20;;;;;;;26.88;5.05;;;;;;;;;;4972450;28;20200;-76
2022/02/02 00:45:49;;;;;;;32.08;6.18;;;;;;;;;;4973374;28;20300;-76
2022/02/02 00:48:17;;;;;;;34.58;5.65;;;;;;;;;;4978685;28;20674;-76
2022/02/02 00:50:45;;;;;;;23.38;5.88;;;;;;;;;;4996416;28;20208;-76
2022/02/02 00:53:14;;;;;;;25.83;6.13;;;;;;;;;;4999137;28;20281;-76
2022/02/02 00:55:41;;;;;;;31.95;6.32;;;;;;;;;;4971773;28;20729;-77
2022/02/02 00:58:09;;;;;;;24.40;6.53;;;;;;;;;;4955018;28;20234;-76
2022/02/02 01:00:37;;;;;;;26.77;6.70;;;;;;;;;;4983278;28;20224;-76
2022/02/02 01:03:04;;;;;;;34.42;6.85;;;;;;;;;;4982754;28;20204;-77
2022/02/02 01:05:31;;;;;;;29.42;6.20;;;;;;;;;;4975281;28;20207;-76
2022/02/02 01:10:43;;;;;;;38.83;8.00;;;;;;;;;;4999536;28;20222;-76
2022/02/02 01:14:03;;;;;;;34.35;6.55;;;;;;;;;;5008878;28;20207;-77
2022/02/02 01:19:00;;;;;;;41.63;7.10;;;;;;;;;;5008454;28;20191;-77
2022/02/02 01:21:32;;;;;;;37.00;7.90;;;;;;;;;;4987549;28;20259;-77
2022/02/02 01:29:23;;;;;;;42.00;6.00;;;;;;;;;;5006677;28;20292;-76
2022/02/02 01:31:50;;;;;;;35.45;6.22;;;;;;;;;;5009774;28;20216;-76
2022/02/02 01:34:17;;;;;;;33.70;8.07;;;;;;;;;;5009735;28;20193;-76
2022/02/02 01:36:45;;;;;;;32.75;5.80;;;;;;;;;;4990730;28;20193;-76
2022/02/02 01:39:14;;;;;;;32.17;6.80;;;;;;;;;;4990314;28;20241;-76
2022/02/02 01:41:43;;;;;;;29.15;6.30;;;;;;;;;;4996313;28;20754;-77
2022/02/02 01:44:18;;;;;;;23.23;5.70;;;;;;;;;;5000278;28;20191;-77
2022/02/02 01:46:48;;;;;;;40.65;7.97;;;;;;;;;;5003866;28;20409;-76
2022/02/02 01:52:15;;;;;;;28.48;7.07;;;;;;;;;;4994485;28;20191;-76
2022/02/02 01:54:56;;;;;;;31.77;5.63;;;;;;;;;;4991083;28;20659;-77
2022/02/02 01:58:01;;;;;;;24.83;5.43;;;;;;;;;;4973452;28;20248;-76
2022/02/02 02:00:17;;;;;;;30.73;6.32;;;;;;;;;;4961133;28;20238;-76
2022/02/02 02:02:45;;;;;;;23.73;5.60;;;;;;;;;;4973432;28;20205;-76
2022/02/02 02:05:13;;;;;;;22.15;5.30;;;;;;;;;;4993372;28;20208;-77
2022/02/02 02:07:40;;;;;;;34.00;6.20;;;;;;;;;;4993689;28;20203;-77
2022/02/02 02:10:07;;;;;;;29.60;7.40;;;;;;;;;;4991741;28;20240;-77
2022/02/02 02:12:43;;;;;;;30.38;7.25;;;;;;;;;;4991533;28;20561;-76
2022/02/02 02:15:12;;;;;;;35.70;7.50;;;;;;;;;;4973334;28;20220;-77
2022/02/02 02:17:39;;;;;;;25.38;5.93;;;;;;;;;;4988632;28;20717;-76
2022/02/02 02:20:10;;;;;;;29.13;5.55;;;;;;;;;;4988601;28;20319;-76
2022/02/02 02:22:41;;;;;;;22.67;5.20;;;;;;;;;;5005137;28;20211;-76
2022/02/02 02:25:09;;;;;;;21.30;5.20;;;;;;;;;;4996654;28;20598;-76
2022/02/02 02:27:36;;;;;;;19.00;7.30;;;;;;;;;;4983777;28;20600;-76
2022/02/02 02:30:10;;;;;;;26.73;5.70;;;;;;;;;;5000216;28;20650;-76
2022/02/02 02:38:27;;;;;;;27.70;3.92;;;;;;;;;;4971769;28;20203;-76
2022/02/02 02:57:02;;;;;;;29.95;5.97;;;;;;;;;;4988483;28;20188;-76
2022/02/02 02:59:37;;;;;;;23.45;5.38;;;;;;;;;;4989754;28;20322;-76
2022/02/02 03:02:41;;;;;;;22.73;5.90;;;;;;;;;;4992845;28;20281;-76
2022/02/02 03:32:09;;;;;;;28.23;6.25;;;;;;;;;;4969927;28;20575;-77
2022/02/02 03:34:58;;;;;;;20.55;4.63;;;;;;;;;;4970326;28;20733;-77
2022/02/02 03:53:58;;;;;;;32.95;4.97;;;;;;;;;;4978576;28;20756;-76
2022/02/02 03:56:33;;;;;;;29.58;6.80;;;;;;;;;;4970096;28;20204;-76
2022/02/02 03:59:27;;;;;;;23.30;5.63;;;;;;;;;;4989762;28;20201;-76
2022/02/02 04:02:13;;;;;;;24.45;5.45;;;;;;;;;;4992436;28;20570;-77
2022/02/02 04:04:48;;;;;;;21.23;4.32;;;;;;;;;;4997679;28;20255;-75
2022/02/02 04:07:20;;;;;;;19.73;5.05;;;;;;;;;;5002689;28;20670;-76
2022/02/02 04:09:48;;;;;;;18.30;5.05;;;;;;;;;;5010937;28;20298;-77
2022/02/02 04:12:28;;;;;;;29.13;6.10;;;;;;;;;;4990654;28;20193;-76
2022/02/02 04:15:58;;;;;;;27.02;5.43;;;;;;;;;;4972541;28;20193;-76
2022/02/02 04:37:18;;;;;;;21.67;7.28;;;;;;;;;;4972011;28;20205;-76
2022/02/02 04:53:44;;;;;;;22.38;5.05;;;;;;;;;;4955082;28;20449;-77
2022/02/02 04:56:25;;;;;;;21.47;5.30;;;;;;;;;;4969133;28;20205;-77
2022/02/02 04:59:03;;;;;;;23.50;5.78;;;;;;;;;;4998171;28;20435;-77
2022/02/02 05:04:36;;;;;;;24.20;5.57;;;;;;;;;;4995100;28;20445;-78
2022/02/02 05:07:08;;;;;;;22.40;4.97;;;;;;;;;;4993934;28;20898;-76
2022/02/02 05:09:45;;;;;;;23.52;4.65;;;;;;;;;;4971379;28;20213;-77
2022/02/02 05:17:43;;;;;;;27.77;4.60;;;;;;;;;;4982103;28;20685;-76
2022/02/02 05:20:42;;;;;;;36.23;7.23;;;;;;;;;;5002517;28;20721;-77
2022/02/02 05:50:23;;;;;;;19.73;4.47;;;;;;;;;;4976453;28;20483;-76
2022/02/02 05:52:52;;;;;;;25.65;4.65;;;;;;;;;;4990744;28;20744;-76
2022/02/02 05:55:19;;;;;;;38.47;6.00;;;;;;;;;;4956984;28;20559;-77
2022/02/02 05:57:47;;;;;;;15.40;4.63;;;;;;;;;;5003999;28;20471;-77
2022/02/02 06:00:15;;;;;;;21.33;4.47;;;;;;;;;;4987850;28;20231;-76
2022/02/02 06:02:45;;;;;;;20.35;5.60;;;;;;;;;;4977558;28;20237;-76
2022/02/02 06:05:12;;;;;;;37.58;7.25;;;;;;;;;;4972079;28;20197;-77
2022/02/02 06:07:41;;;;;;;29.17;6.18;;;;;;;;;;4971039;28;20291;-77
2022/02/02 06:10:14;;;;;;;26.77;5.22;;;;;;;;;;4970642;28;21442;-76
2022/02/02 06:12:42;;;;;;;27.07;5.63;;;;;;;;;;4963274;28;20200;-76
2022/02/02 06:15:13;;;;;;;27.05;5.82;;;;;;;;;;4973895;28;20444;-76
2022/02/02 06:17:44;;;;;;;26.90;5.03;;;;;;;;;;4992259;28;20559;-76
2022/02/02 06:20:12;;;;;;;19.70;5.10;;;;;;;;;;4999497;28;20476;-76
2022/02/02 06:22:43;;;;;;;17.25;5.05;;;;;;;;;;5004159;28;20490;-76
2022/02/02 06:25:15;;;;;;;20.83;5.70;;;;;;;;;;4985250;28;20202;-76
2022/02/02 06:27:44;;;;;;;24.77;6.43;;;;;;;;;;4953674;28;20804;-76
2022/02/02 06:30:12;;;;;;;18.42;5.07;;;;;;;;;;4975076;28;20215;-77
2022/02/02 06:32:46;;;;;;;17.45;4.72;;;;;;;;;;4990155;28;20204;-76
2022/02/02 06:35:14;;;;;;;20.53;4.60;;;;;;;;;;4980894;28;20607;-77
2022/02/02 06:37:42;;;;;;;20.17;6.80;;;;;;;;;;4998687;28;20443;-76
2022/02/02 06:40:10;;;;;;;26.97;6.03;;;;;;;;;;5002091;28;20216;-76
2022/02/02 06:42:39;;;;;;;19.33;5.88;;;;;;;;;;4990984;28;20480;-76
2022/02/02 06:45:07;;;;;;;22.57;5.53;;;;;;;;;;4974023;28;20527;-77
2022/02/02 06:47:36;;;;;;;27.90;6.67;;;;;;;;;;4990962;28;20436;-76
2022/02/02 06:50:09;;;;;;;29.67;7.13;;;;;;;;;;4988005;28;20472;-76
2022/02/02 06:52:39;;;;;;;31.23;6.90;;;;;;;;;;4992299;28;20846;-77
2022/02/02 06:55:13;;;;;;;17.83;6.10;;;;;;;;;;4994010;28;20211;-76
2022/02/02 06:57:51;;;;;;;20.37;6.30;;;;;;;;;;4985399;28;20200;-76
2022/02/02 07:00:32;;;;;;;20.33;5.55;;;;;;;;;;4984019;28;20490;-76
2022/02/02 07:03:13;;;;;;;19.73;6.63;;;;;;;;;;4987073;28;20220;-76
2022/02/02 07:05:51;;;;;;;21.60;5.53;;;;;;;;;;4985504;28;20201;-77
2022/02/02 07:08:29;;;;;;;26.07;5.70;;;;;;;;;;4986376;28;20497;-76
2022/02/02 07:11:11;;;;;;;22.30;5.43;;;;;;;;;;4969075;28;20850;-77
2022/02/02 07:13:53;;;;;;;28.13;6.65;;;;;;;;;;4993851;28;20462;-77
2022/02/02 07:16:31;;;;;;;21.83;6.47;;;;;;;;;;5002255;28;20704;-76
2022/02/02 07:19:12;;;;;;;32.20;5.93;;;;;;;;;;4971511;28;20457;-77
2022/02/02 07:21:53;;;;;;;28.63;6.50;;;;;;;;;;4993648;28;20223;-77
2022/02/02 07:24:38;;;;;;;30.27;5.40;;;;;;;;;;4987750;28;20792;-78
2022/02/02 07:27:27;;;;;;;29.15;6.45;;;;;;;;;;4986969;28;20994;-77
2022/02/02 07:30:05;;;;;;;25.40;7.10;;;;;;;;;;5000596;28;20677;-77
2022/02/02 07:32:39;;;;;;;24.17;6.78;;;;;;;;;;4998831;28;20454;-78
2022/02/02 07:35:16;;;;;;;22.08;6.70;;;;;;;;;;4993479;28;21091;-79
2022/02/02 07:37:46;;;;;;;17.77;6.93;;;;;;;;;;4977301;28;20198;-78
2022/02/02 07:40:17;;;;;;;27.77;6.43;;;;;;;;;;4975638;28;20220;-77
2022/02/02 07:42:48;;;;;;;29.70;7.00;;;;;;;;;;4991512;28;20224;-76
2022/02/02 07:45:19;;;;;;;23.70;6.70;;;;;;;;;;4991787;28;20451;-78
2022/02/02 07:47:49;;;;;;;20.70;5.13;;;;;;;;;;5002437;28;20435;-75
2022/02/02 07:50:18;;;;;;;33.80;7.33;;;;;;;;;;5003141;28;20211;-75
2022/02/02 07:52:46;;;;;;;26.52;5.82;;;;;;;;;;4990499;28;20444;-76
2022/02/02 07:55:14;;;;;;;32.75;6.40;;;;;;;;;;4984403;28;20224;-77
2022/02/02 07:57:44;;;;;;;26.08;6.82;;;;;;;;;;4998681;28;20184;-75
2022/02/02 08:00:18;;;;;;;24.63;5.80;;;;;;;;;;4979172;28;20219;-75
2022/02/02 08:02:59;;;;;;;27.45;6.18;;;;;;;;;;4983825;28;20225;-75
2022/02/02 08:05:28;;;;;;;24.77;5.53;;;;;;;;;;4994265;28;20208;-76
2022/02/02 08:08:06;;;;;;;19.40;6.00;;;;;;;;;;5006225;28;20202;-75
2022/02/02 08:10:36;;;;;;;29.70;5.90;;;;;;;;;;4990285;28;20221;-75
2022/02/02 08:13:09;;;;;;;22.52;5.90;;;;;;;;;;4996680;28;20450;-77
2022/02/02 08:15:37;;;;;;;24.50;5.65;;;;;;;;;;4996809;28;20320;-76
2022/02/02 08:18:05;;;;;;;23.80;5.70;;;;;;;;;;5007565;28;20201;-76
2022/02/02 08:20:47;;;;;;;25.03;6.17;;;;;;;;;;4992213;28;20980;-76
2022/02/02 08:23:14;;;;;;;18.10;5.45;;;;;;;;;;4983453;28;20480;-76
2022/02/02 08:25:43;;;;;;;27.33;6.70;;;;;;;;;;4982506;28;20205;-76
2022/02/02 08:28:10;;;;;;;21.07;5.17;;;;;;;;;;4958078;28;20460;-75
2022/02/02 08:30:38;;;;;;;20.30;5.20;;;;;;;;;;4957638;28;20492;-75
2022/02/02 08:33:12;;;;;;;28.53;6.20;;;;;;;;;;4983051;28;20503;-77
2022/02/02 08:35:43;;;;;;;20.60;5.07;;;;;;;;;;4975205;28;20515;-77
2022/02/02 08:38:16;;;;;;;23.70;4.93;;;;;;;;;;4987375;28;20443;-76
2022/02/02 08:40:47;;;;;;;21.57;5.47;;;;;;;;;;4971106;28;20461;-76
2022/02/02 08:43:18;;;;;;;28.00;7.63;;;;;;;;;;4975032;28;21059;-76
2022/02/02 08:45:47;;;;;;;25.20;4.70;;;;;;;;;;4974516;28;20460;-76
2022/02/02 08:48:21;;;;;;;20.40;5.50;;;;;;;;;;4967645;28;20534;-76
2022/02/02 08:50:52;;;;;;;18.73;5.67;;;;;;;;;;4963127;28;20647;-76
2022/02/02 08:53:33;;;;;;;24.90;5.23;;;;;;;;;;4983390;28;20436;-77
2022/02/02 08:56:13;;;;;;;16.27;5.30;;;;;;;;;;5010266;28;20474;-76
2022/02/02 08:58:43;;;;;;;25.70;5.43;;;;;;;;;;5010952;28;20439;-76
2022/02/02 09:01:15;;;;;;;22.50;6.70;;;;;;;;;;4990911;28;20799;-76
2022/02/02 09:06:25;;;;;;;19.77;5.03;;;;;;;;;;4999240;28;20455;-75
2022/02/02 09:09:02;;;;;;;16.40;5.10;;;;;;;;;;4995209;28;20797;-76
2022/02/02 09:33:26;;;;;;;19.50;6.27;;;;;;;;;;5009056;28;20439;-75
2022/02/02 09:35:53;;;;;;;18.43;5.43;;;;;;;;;;4994869;28;20762;-76
2022/02/02 09:38:21;;;;;;;39.77;6.43;;;;;;;;;;4992280;28;20443;-76
2022/02/02 09:43:33;;;;;;;20.10;5.90;;;;;;;;;;4995887;28;20479;-75
2022/02/02 09:46:05;;;;;;;12.27;5.23;;;;;;;;;;5004944;28;20443;-76
2022/02/02 09:48:40;;;;;;;18.50;5.20;;;;;;;;;;4998436;28;20796;-76
2022/02/02 09:51:12;;;;;;;22.53;6.27;;;;;;;;;;4984802;28;20458;-76
2022/02/02 09:53:44;;;;;;;36.10;8.10;;;;;;;;;;4991675;28;20456;-77
2022/02/02 09:56:24;;;;;;;16.50;4.60;;;;;;;;;;5009385;28;20440;-76
2022/02/02 09:59:02;;;;;;;20.53;6.60;;;;;;;;;;4998345;28;20485;-77
2022/02/02 10:01:45;;;;;;;15.80;5.60;;;;;;;;;;5000861;28;20846;-76
2022/02/02 10:04:26;;;;;;;28.63;6.63;;;;;;;;;;5009009;28;20591;-75
2022/02/02 10:07:23;;;;;;;14.20;6.37;;;;;;;;;;4985597;28;20460;-76
2022/02/02 10:10:11;;;;;;;24.20;6.57;;;;;;;;;;4990060;28;21240;-76
2022/02/02 10:12:59;;;;;;;20.77;6.10;;;;;;;;;;4998242;28;20450;-78
2022/02/02 10:15:29;;;;;;;28.83;6.10;;;;;;;;;;5003471;28;20473;-77
2022/02/02 10:17:59;;;;;;;38.67;10.47;;;;;;;;;;4983996;28;20903;-77
2022/02/02 10:20:27;;;;;;;19.83;6.80;;;;;;;;;;4986692;28;20459;-78
2022/02/02 10:22:57;;;;;;;26.40;8.53;;;;;;;;;;4993848;28;20537;-76
2022/02/02 10:25:25;;;;;;;25.87;7.60;;;;;;;;;;4956741;28;20491;-76
2022/02/02 10:27:53;;;;;;;20.50;7.47;;;;;;;;;;4988735;28;20449;-76
2022/02/02 10:30:21;;;;;;;29.50;7.73;;;;;;;;;;4988258;28;20475;-76
2022/02/02 10:32:49;;;;;;;25.03;6.20;;;;;;;;;;4995641;28;20474;-77
2022/02/02 10:35:31;;;;;;;24.77;6.50;;;;;;;;;;4995678;28;20459;-78
2022/02/02 10:38:00;;;;;;;22.07;6.70;;;;;;;;;;4993343;28;20501;-76
2022/02/02 10:40:43;;;;;;;19.47;6.17;;;;;;;;;;4990644;28;20464;-76
2022/02/02 10:43:27;;;;;;;35.00;7.13;;;;;;;;;;5008772;28;20514;-76
2022/02/02 10:45:55;;;;;;;18.83;6.00;;;;;;;;;;4970217;28;20455;-78
2022/02/02 10:48:31;;;;;;;23.43;7.00;;;;;;;;;;4992154;28;20453;-75
2022/02/02 10:51:04;;;;;;;24.43;6.60;;;;;;;;;;4991566;28;20455;-76
2022/02/02 10:53:42;;;;;;;28.37;6.20;;;;;;;;;;4990500;28;20988;-76
2022/02/02 10:59:13;;;;;;;20.47;6.27;;;;;;;;;;4987306;28;20756;-76
2022/02/02 11:01:46;;;;;;;20.50;6.47;;;;;;;;;;4989646;28;20452;-77
2022/02/02 11:06:55;;;;;;;22.97;7.33;;;;;;;;;;4988376;28;20444;-76
2022/02/02 11:09:27;;;;;;;19.10;6.60;;;;;;;;;;4987681;28;20457;-76
2022/02/02 11:11:55;;;;;;;29.20;8.03;;;;;;;;;;4997877;28;20451;-76
2022/02/02 11:14:28;;;;;;;27.83;6.97;;;;;;;;;;4995000;28;20450;-74
2022/02/02 11:16:59;;;;;;;26.07;7.50;;;;;;;;;;5006996;28;20459;-75
2022/02/02 11:19:28;;;;;;;27.67;7.37;;;;;;;;;;5002292;28;20431;-76
2022/02/02 11:22:15;;;;;;;29.00;6.07;;;;;;;;;;4993172;28;20456;-75
2022/02/02 11:24:44;;;;;;;30.67;7.70;;;;;;;;;;4974646;28;20446;-76
2022/02/02 11:27:31;;;;;;;32.73;6.70;;;;;;;;;;4998508;28;20439;-75
2022/02/02 11:29:59;;;;;;;20.67;6.53;;;;;;;;;;4989830;28;20470;-76
2022/02/02 11:32:39;;;;;;;31.80;6.50;;;;;;;;;;4994064;28;20814;-80
2022/02/02 11:35:21;;;;;;;32.53;6.90;;;;;;;;;;4991287;28;20459;-76
2022/02/02 11:37:55;;;;;;;24.13;8.00;;;;;;;;;;4999368;28;20459;-78
2022/02/02 11:40:24;;;;;;;24.43;7.30;;;;;;;;;;5000697;28;20995;-75
2022/02/02 11:42:56;;;;;;;29.80;7.30;;;;;;;;;;4989997;28;20487;-77
2022/02/02 11:45:40;;;;;;;29.90;7.00;;;;;;;;;;4985026;28;20541;-76
2022/02/02 11:48:14;;;;;;;30.37;7.87;;;;;;;;;;4963452;28;20440;-77
2022/02/02 11:50:51;;;;;;;25.83;6.20;;;;;;;;;;4994869;28;20625;-78
2022/02/02 11:53:33;;;;;;;33.53;7.00;;;;;;;;;;4995865;28;20424;-77
2022/02/02 11:56:06;;;;;;;24.63;6.20;;;;;;;;;;4998731;28;20442;-76
2022/02/02 11:58:34;;;;;;;24.70;7.47;;;;;;;;;;4981864;28;20444;-78
2022/02/02 12:01:09;;;;;;;23.70;5.97;;;;;;;;;;4991594;28;20463;-78
2022/02/02 12:03:47;;;;;;;21.50;6.10;;;;;;;;;;4978638;28;20482;-77
2022/02/02 12:06:26;;;;;;;28.10;5.83;;;;;;;;;;4987598;28;20857;-77
2022/02/02 12:09:03;;;;;;;32.80;7.67;;;;;;;;;;4980378;28;20448;-77
2022/02/02 12:18:56;;;;;;;17.40;5.30;;;;;;;;;;4993565;28;20462;-76
2022/02/02 12:20:55;;;;;;;26.33;5.67;;;;;;;;;;5006441;28;20537;-76
2022/02/02 12:47:45;;;;;;;21.10;5.77;;;;;;;;;;4979268;28;20439;-76
2022/02/02 12:50:29;;;;;;;24.53;6.57;;;;;;;;;;5005717;28;20832;-77
2022/02/02 12:56:12;;;;;;;26.83;6.20;;;;;;;;;;4970070;28;20476;-76
2022/02/02 12:58:38;;;;;;;23.70;5.90;;;;;;;;;;4988624;28;21682;-77
2022/02/02 13:01:08;;;;;;;25.50;5.87;;;;;;;;;;4989819;28;20456;-76
2022/02/02 13:03:36;;;;;;;21.53;7.00;;;;;;;;;;4994414;28;20995;-77
2022/02/02 13:06:04;;;;;;;33.60;6.90;;;;;;;;;;4993240;28;21005;-76
2022/02/02 13:08:31;;;;;;;20.67;5.87;;;;;;;;;;4985678;28;20451;-76
2022/02/02 13:10:59;;;;;;;31.43;6.53;;;;;;;;;;4971366;28;20488;-77
2022/02/02 13:13:29;;;;;;;22.17;6.90;;;;;;;;;;4971961;28;20437;-77
2022/02/02 13:16:02;;;;;;;23.33;7.00;;;;;;;;;;4972603;28;20436;-76
2022/02/02 13:18:35;;;;;;;21.90;5.40;;;;;;;;;;4958332;28;20452;-76
2022/02/02 13:21:07;;;;;;;18.33;5.20;;;;;;;;;;4990774;28;20490;-77
2022/02/02 13:23:41;;;;;;;18.93;5.37;;;;;;;;;;4974841;28;20490;-76
2022/02/02 13:26:14;;;;;;;16.83;5.10;;;;;;;;;;4983056;28;21776;-76
2022/02/02 13:28:46;;;;;;;18.60;5.33;;;;;;;;;;4979419;28;20799;-77
2022/02/02 13:31:34;;;;;;;21.87;4.57;;;;;;;;;;4983851;28;20475;-76
2022/02/02 13:34:08;;;;;;;18.23;7.50;;;;;;;;;;4972284;28;20464;-76
2022/02/02 13:36:51;;;;;;;18.43;5.30;;;;;;;;;;4972864;28;21402;-77
2022/02/02 13:45:13;;;;;;;20.50;4.93;;;;;;;;;;4970340;28;20865;-76
2022/02/02 13:47:59;;;;;;;13.13;4.27;;;;;;;;;;4990976;28;20455;-77
2022/02/02 13:53:50;;;;;;;19.00;4.53;;;;;;;;;;4997687;28;20931;-77
2022/02/02 13:56:36;;;;;;;23.50;6.07;;;;;;;;;;4977009;28;20456;-75
2022/02/02 13:59:23;;;;;;;19.93;5.40;;;;;;;;;;4977462;28;20432;-75
2022/02/02 14:01:57;;;;;;;21.63;4.90;;;;;;;;;;4979296;28;20438;-76
2022/02/02 14:04:35;;;;;;;17.00;4.10;;;;;;;;;;4989471;28;20484;-77
2022/02/02 14:07:20;;;;;;;22.33;6.10;;;;;;;;;;4971844;28;20479;-76
2022/02/02 14:10:04;;;;;;;18.57;4.27;;;;;;;;;;4989466;28;20489;-77
2022/02/02 14:31:02;;;;;;;9.47;3.67;;;;;;;;;;4995322;28;20439;-78
2022/02/02 14:31:39;;;;;;;10.33;4.40;;;;;;;;;;5007634;28;20509;-78
2022/02/02 14:34:06;;;;;;;8.87;3.60;;;;;;;;;;5002083;28;20793;-77
2022/02/02 14:36:36;;;;;;;22.80;5.27;;;;;;;;;;4989243;28;20440;-77
2022/02/02 14:39:12;;;;;;;21.73;5.03;;;;;;;;;;4990091;28;20447;-77
2022/02/02 14:41:44;;;;;;;19.67;5.67;;;;;;;;;;4996125;28;20481;-77
2022/02/02 14:44:17;;;;;;;14.23;4.50;;;;;;;;;;4995808;28;20494;-78
2022/02/02 14:46:50;;;;;;;13.73;5.97;;;;;;;;;;5006690;28;20439;-78
2022/02/02 14:49:22;;;;;;;14.70;4.83;;;;;;;;;;4989683;28;20924;-77
2022/02/02 14:52:01;;;;;;;15.87;5.27;;;;;;;;;;4986810;28;20460;-77
2022/02/02 14:54:40;;;;;;;15.00;4.50;;;;;;;;;;4974488;28;20446;-76
2022/02/02 15:29:30;;;;;;;14.47;4.43;;;;;;;;;;4969771;28;20436;-76
2022/02/02 15:31:58;;;;;;;9.80;3.60;;;;;;;;;;4979145;28;20482;-79
2022/02/02 15:34:32;;;;;;;16.90;5.07;;;;;;;;;;4989899;28;20450;-77
2022/02/02 15:37:19;;;;;;;14.80;4.20;;;;;;;;;;4991662;28;20447;-77
2022/02/02 15:39:56;;;;;;;12.60;3.90;;;;;;;;;;4997295;28;20451;-78
2022/02/02 15:42:38;;;;;;;11.13;3.90;;;;;;;;;;5000127;28;20536;-77
2022/02/02 15:58:33;;;;;;;13.70;4.70;;;;;;;;;;4972693;28;20436;-77
2022/02/02 16:03:43;;;;;;;15.20;6.73;;;;;;;;;;4962202;28;20469;-76
2022/02/02 16:06:15;;;;;;;16.63;5.63;;;;;;;;;;4988865;28;20817;-76
2022/02/02 16:08:44;;;;;;;18.30;5.10;;;;;;;;;;4988274;28;20957;-77
2022/02/02 16:11:19;;;;;;;16.03;5.63;;;;;;;;;;4956263;28;20465;-77
2022/02/02 16:13:50;;;;;;;19.67;5.10;;;;;;;;;;4973128;28;20448;-77
2022/02/02 16:16:41;;;;;;;10.10;4.00;;;;;;;;;;4983438;28;20980;-76
2022/02/02 16:19:16;;;;;;;15.13;5.20;;;;;;;;;;4993796;28;20459;-76
2022/02/02 16:32:58;;;;;;;11.33;5.37;;;;;;;;;;4972851;28;20465;-78
2022/02/02 16:35:48;;;;;;;16.87;5.60;;;;;;;;;;5000013;28;20552;-77
2022/02/02 16:38:18;;;;;;;18.63;4.97;;;;;;;;;;4998263;28;20443;-76
2022/02/02 16:40:49;;;;;;;14.33;4.93;;;;;;;;;;5004462;28;20450;-77
2022/02/02 16:43:18;;;;;;;14.90;5.53;;;;;;;;;;5005374;28;20486;-77
2022/02/02 16:45:49;;;;;;;16.20;5.30;;;;;;;;;;4955167;28;20819;-78
2022/02/02 16:48:16;;;;;;;14.27;5.60;;;;;;;;;;5002351;28;20200;-78
2022/02/02 16:50:46;;;;;;;15.77;5.50;;;;;;;;;;5006583;28;20989;-76
2022/02/02 16:53:24;;;;;;;15.27;6.43;;;;;;;;;;4988923;28;20498;-77
2022/02/02 16:55:57;;;;;;;27.75;6.13;;;;;;;;;;5000418;28;20201;-77
2022/02/02 17:30:43;;;;;;;13.18;5.30;;;;;;;;;;4996149;28;20862;-76
2022/02/02 17:33:16;;;;;;;18.67;5.78;;;;;;;;;;5001270;28;20294;-78
2022/02/02 17:36:03;;;;;;;20.20;5.50;;;;;;;;;;4988854;28;20899;-77
2022/02/02 17:38:37;;;;;;;11.95;5.50;;;;;;;;;;4984662;28;20736;-78
2022/02/02 17:41:19;;;;;;;19.60;6.38;;;;;;;;;;4989477;28;20562;-78
2022/02/02 18:18:51;;;;;;;11.53;6.93;;;;;;;;;;4996017;28;20193;-76
2022/02/02 18:21:21;;;;;;;14.15;7.57;;;;;;;;;;4988086;28;20487;-78
2022/02/02 18:23:54;;;;;;;19.83;9.05;;;;;;;;;;4989322;28;20220;-76
2022/02/02 18:26:27;;;;;;;19.52;10.27;;;;;;;;;;4991867;28;20195;-76
2022/02/02 18:29:00;;;;;;;17.02;9.82;;;;;;;;;;4989311;28;20212;-76
2022/02/02 18:31:44;;;;;;;15.23;8.70;;;;;;;;;;4995793;28;20232;-76
2022/02/02 18:34:21;;;;;;;13.57;8.47;;;;;;;;;;4988330;28;20299;-76
2022/02/02 18:37:00;;;;;;;18.57;8.50;;;;;;;;;;4997461;28;20813;-76
2022/02/02 18:45:08;;;;;;;14.03;8.47;;;;;;;;;;4969405;28;20468;-76
2022/02/02 18:47:46;;;;;;;16.13;8.50;;;;;;;;;;4986187;28;20444;-75
2022/02/02 18:50:26;;;;;;;14.10;8.47;;;;;;;;;;4987911;28;20563;-76
2022/02/02 18:53:31;;;;;;;14.27;9.07;;;;;;;;;;5001041;28;20443;-77
2022/02/02 18:56:01;;;;;;;15.93;8.13;;;;;;;;;;4969986;28;20457;-76
2022/02/02 18:58:36;;;;;;;15.63;7.27;;;;;;;;;;4969577;28;20467;-76
2022/02/02 19:01:16;;;;;;;16.57;7.50;;;;;;;;;;4988194;28;20960;-76
2022/02/02 19:06:50;;;;;;;12.40;7.33;;;;;;;;;;4969942;28;20551;-77
2022/02/02 19:15:19;;;;;;;15.43;7.07;;;;;;;;;;4973342;28;20435;-76
2022/02/02 19:31:31;;;;;;;25.23;9.80;;;;;;;;;;5000847;28;20987;-75
2022/02/02 19:53:19;;;;;;;13.17;8.70;;;;;;;;;;4990000;28;20464;-75
2022/02/02 19:55:52;;;;;;;12.30;9.10;;;;;;;;;;4968606;28;21278;-77
2022/02/02 20:03:55;;;;;;;14.77;8.97;;;;;;;;;;4987597;28;20439;-76
2022/02/02 20:06:36;;;;;;;15.13;8.90;;;;;;;;;;4989586;28;20940;-75
2022/02/02 20:11:40;;;;;;;16.47;8.20;;;;;;;;;;5005420;23;20491;-76
2022/02/02 20:14:09;;;;;;;11.37;7.70;;;;;;;;;;4995383;28;20459;-76
2022/02/02 20:16:37;;;;;;;11.57;8.67;;;;;;;;;;4975205;28;20452;-76
2022/02/02 20:19:07;;;;;;;13.93;9.17;;;;;;;;;;5007243;28;20493;-76
2022/02/02 20:21:38;;;;;;;16.67;9.60;;;;;;;;;;4988490;28;20545;-76
2022/02/02 20:24:07;;;;;;;16.17;9.10;;;;;;;;;;4984977;28;20459;-76
2022/02/02 20:26:36;;;;;;;14.30;9.27;;;;;;;;;;4986761;28;20460;-76
2022/02/02 20:29:04;;;;;;;12.10;8.20;;;;;;;;;;4977805;28;20809;-76
2022/02/02 20:31:32;;;;;;;15.47;10.00;;;;;;;;;;4980702;28;20465;-75
2022/02/02 20:34:00;;;;;;;20.13;10.13;;;;;;;;;;4982564;28;20757;-76
2022/02/02 20:36:27;;;;;;;13.90;9.90;;;;;;;;;;4966443;28;20439;-76
2022/02/02 20:38:54;;;;;;;15.70;8.33;;;;;;;;;;4987864;28;20448;-76
2022/02/02 20:41:21;;;;;;;16.57;9.57;;;;;;;;;;4988793;28;20466;-77
2022/02/02 20:43:54;;;;;;;18.33;9.50;;;;;;;;;;4988166;28;20782;-77
2022/02/02 21:05:27;;;;;;;14.03;9.87;;;;;;;;;;4973485;28;20527;-77
2022/02/02 21:10:38;;;;;;;14.00;8.97;;;;;;;;;;4975122;28;20478;-76
2022/02/02 21:15:48;;;;;;;16.70;11.30;;;;;;;;;;4974184;28;20925;-76
2022/02/02 21:18:18;;;;;;;17.87;10.70;;;;;;;;;;4972536;28;20433;-76
2022/02/02 21:20:52;;;;;;;14.70;11.00;;;;;;;;;;4985368;28;21051;-77
2022/02/02 21:23:36;;;;;;;20.47;10.67;;;;;;;;;;4987941;28;20510;-77
2022/02/02 21:28:44;;;;;;;17.57;12.00;;;;;;;;;;4954773;28;20425;-76
2022/02/02 21:31:13;;;;;;;15.77;11.57;;;;;;;;;;4975733;28;21786;-78
2022/02/02 21:33:40;;;;;;;16.87;11.10;;;;;;;;;;4960436;28;20494;-77
2022/02/02 21:36:10;;;;;;;16.10;10.70;;;;;;;;;;4985510;28;20460;-79
2022/02/02 21:38:52;;;;;;;18.63;12.00;;;;;;;;;;4969959;28;20507;-76
2022/02/02 21:41:23;;;;;;;18.87;13.00;;;;;;;;;;4969624;28;20464;-77
2022/02/02 21:43:51;;;;;;;15.13;10.40;;;;;;;;;;4983455;28;20491;-77
2022/02/02 21:46:19;;;;;;;18.17;12.63;;;;;;;;;;4979719;28;20481;-77
2022/02/02 21:48:46;;;;;;;17.37;11.73;;;;;;;;;;4974343;28;20482;-76
2022/02/02 21:51:24;;;;;;;16.27;11.30;;;;;;;;;;4975056;28;20484;-76
2022/02/02 21:53:51;;;;;;;20.17;11.40;;;;;;;;;;4973679;28;20451;-76
2022/02/02 21:56:19;;;;;;;22.40;13.50;;;;;;;;;;4952064;28;20443;-77
2022/02/02 21:58:46;;;;;;;18.20;13.03;;;;;;;;;;4970571;28;20468;-77
2022/02/02 22:01:13;;;;;;;15.23;11.73;;;;;;;;;;4970149;28;20464;-77
2022/02/02 22:03:40;;;;;;;19.10;12.73;;;;;;;;;;4972613;28;20487;-77
2022/02/02 22:06:07;;;;;;;16.67;12.37;;;;;;;;;;4974617;28;20491;-78
2022/02/02 22:08:36;;;;;;;21.10;14.80;;;;;;;;;;4970489;28;20439;-76
2022/02/02 22:11:03;;;;;;;18.40;13.00;;;;;;;;;;4983003;28;20483;-76
2022/02/02 22:13:37;;;;;;;20.53;13.80;;;;;;;;;;4974636;28;20456;-77
2022/02/02 22:16:08;;;;;;;20.37;14.00;;;;;;;;;;4971475;28;20519;-77
2022/02/02 22:18:37;;;;;;;20.20;14.37;;;;;;;;;;4977780;28;20873;-77
2022/02/02 22:21:05;;;;;;;23.67;13.03;;;;;;;;;;4976253;28;21003;-77
2022/02/02 22:23:33;;;;;;;20.07;13.70;;;;;;;;;;4971114;28;20957;-76
2022/02/02 22:26:02;;;;;;;21.90;14.17;;;;;;;;;;4970396;28;20473;-76
2022/02/02 22:28:29;;;;;;;26.77;15.50;;;;;;;;;;4975755;28;20476;-77
2022/02/02 22:30:56;;;;;;;22.07;16.23;;;;;;;;;;4977197;28;20460;-74
2022/02/02 22:33:23;;;;;;;21.47;15.73;;;;;;;;;;4984241;28;20450;-76
2022/02/02 22:35:50;;;;;;;23.30;15.07;;;;;;;;;;4980490;28;20440;-78
2022/02/02 22:38:18;;;;;;;27.10;18.20;;;;;;;;;;4974060;28;20519;-77